sensor_id;sensor_type;location;lat;lon;timestamp;P1;durP1;ratioP1;P2;durP2;ratioP2
19671;SDS011;9983;51.114;13.788;2023-04-03T00:02:11;3.60;;;1.13;;
19671;SDS011;9983;51.114;13.788;2023-04-03T00:07:11;3.20;;;1.33;;
19671;SDS011;9983;51.114;13.788;2023-04-03T00:12:12;4.25;;;1.63;;
19671;SDS011;9983;51.114;13.788;2023-04-03T00:17:12;1.65;;;1.10;;
19671;SDS011;9983;51.114;13.788;2023-04-03T00:22:12;4.82;;;1.70;;
19671;SDS011;9983;51.114;13.788;2023-04-03T00:27:13;3.08;;;1.48;;
19671;SDS011;9983;51.114;13.788;2023-04-03T00:32:13;3.97;;;1.33;;
19671;SDS011;9983;51.114;13.788;2023-04-03T00:37:13;3.90;;;1.15;;
19671;SDS011;9983;51.114;13.788;2023-04-03T00:42:14;1.95;;;1.20;;
19671;SDS011;9983;51.114;13.788;2023-04-03T00:47:15;2.88;;;1.38;;
19671;SDS011;9983;51.114;13.788;2023-04-03T00:52:17;3.75;;;1.23;;
19671;SDS011;9983;51.114;13.788;2023-04-03T00:57:21;2.55;;;1.42;;
19671;SDS011;9983;51.114;13.788;2023-04-03T01:02:22;2.88;;;1.38;;
19671;SDS011;9983;51.114;13.788;2023-04-03T01:07:24;2.25;;;1.45;;
19671;SDS011;9983;51.114;13.788;2023-04-03T01:12:29;1.75;;;1.10;;
19671;SDS011;9983;51.114;13.788;2023-04-03T01:22:43;2.20;;;1.27;;
19671;SDS011;9983;51.114;13.788;2023-04-03T01:28:05;2.47;;;1.58;;
19671;SDS011;9983;51.114;13.788;2023-04-03T01:33:07;1.92;;;1.60;;
19671;SDS011;9983;51.114;13.788;2023-04-03T01:38:07;3.80;;;1.55;;
19671;SDS011;9983;51.114;13.788;2023-04-03T01:43:07;3.30;;;1.40;;
19671;SDS011;9983;51.114;13.788;2023-04-03T01:48:08;1.67;;;1.20;;
19671;SDS011;9983;51.114;13.788;2023-04-03T01:53:08;1.45;;;1.33;;
19671;SDS011;9983;51.114;13.788;2023-04-03T01:58:09;2.08;;;1.45;;
19671;SDS011;9983;51.114;13.788;2023-04-03T02:03:09;2.88;;;1.48;;
19671;SDS011;9983;51.114;13.788;2023-04-03T02:08:10;2.30;;;1.13;;
19671;SDS011;9983;51.114;13.788;2023-04-03T02:13:11;3.25;;;1.50;;
19671;SDS011;9983;51.114;13.788;2023-04-03T02:18:11;1.88;;;1.15;;
19671;SDS011;9983;51.114;13.788;2023-04-03T02:23:11;3.72;;;1.27;;
19671;SDS011;9983;51.114;13.788;2023-04-03T02:28:12;2.28;;;1.13;;
19671;SDS011;9983;51.114;13.788;2023-04-03T02:33:12;1.58;;;1.20;;
19671;SDS011;9983;51.114;13.788;2023-04-03T02:38:12;3.28;;;1.33;;
19671;SDS011;9983;51.114;13.788;2023-04-03T02:43:12;3.50;;;1.27;;
19671;SDS011;9983;51.114;13.788;2023-04-03T02:48:13;1.80;;;1.00;;
19671;SDS011;9983;51.114;13.788;2023-04-03T02:53:14;1.77;;;1.10;;
19671;SDS011;9983;51.114;13.788;2023-04-03T02:58:15;4.65;;;1.30;;
19671;SDS011;9983;51.114;13.788;2023-04-03T03:03:15;3.65;;;1.60;;
19671;SDS011;9983;51.114;13.788;2023-04-03T03:08:16;1.73;;;1.25;;
19671;SDS011;9983;51.114;13.788;2023-04-03T03:13:19;1.58;;;1.02;;
19671;SDS011;9983;51.114;13.788;2023-04-03T03:18:20;5.70;;;1.42;;
19671;SDS011;9983;51.114;13.788;2023-04-03T03:23:21;1.95;;;1.20;;
19671;SDS011;9983;51.114;13.788;2023-04-03T03:28:22;3.65;;;1.60;;
19671;SDS011;9983;51.114;13.788;2023-04-03T03:33:23;4.35;;;1.20;;
19671;SDS011;9983;51.114;13.788;2023-04-03T03:38:23;3.92;;;1.30;;
19671;SDS011;9983;51.114;13.788;2023-04-03T03:43:24;1.77;;;1.23;;
19671;SDS011;9983;51.114;13.788;2023-04-03T03:48:24;4.77;;;1.33;;
19671;SDS011;9983;51.114;13.788;2023-04-03T03:53:24;3.95;;;1.30;;
19671;SDS011;9983;51.114;13.788;2023-04-03T03:58:25;3.42;;;1.25;;
19671;SDS011;9983;51.114;13.788;2023-04-03T04:03:25;4.10;;;1.43;;
19671;SDS011;9983;51.114;13.788;2023-04-03T04:08:26;3.53;;;1.50;;
19671;SDS011;9983;51.114;13.788;2023-04-03T04:13:26;4.32;;;1.58;;
19671;SDS011;9983;51.114;13.788;2023-04-03T04:18:26;3.53;;;1.30;;
19671;SDS011;9983;51.114;13.788;2023-04-03T04:23:26;4.25;;;2.15;;
19671;SDS011;9983;51.114;13.788;2023-04-03T04:28:27;2.50;;;1.70;;
19671;SDS011;9983;51.114;13.788;2023-04-03T04:33:27;7.30;;;2.17;;
19671;SDS011;9983;51.114;13.788;2023-04-03T04:38:27;5.60;;;2.97;;
19671;SDS011;9983;51.114;13.788;2023-04-03T04:43:27;4.32;;;3.03;;
19671;SDS011;9983;51.114;13.788;2023-04-03T04:48:28;6.33;;;2.30;;
19671;SDS011;9983;51.114;13.788;2023-04-03T04:53:28;4.65;;;2.33;;
19671;SDS011;9983;51.114;13.788;2023-04-03T04:58:28;7.00;;;3.45;;
19671;SDS011;9983;51.114;13.788;2023-04-03T05:03:29;8.00;;;3.80;;
19671;SDS011;9983;51.114;13.788;2023-04-03T05:08:29;6.07;;;2.80;;
19671;SDS011;9983;51.114;13.788;2023-04-03T05:13:30;3.55;;;2.10;;
19671;SDS011;9983;51.114;13.788;2023-04-03T05:18:30;4.47;;;1.95;;
19671;SDS011;9983;51.114;13.788;2023-04-03T05:23:30;2.47;;;1.77;;
19671;SDS011;9983;51.114;13.788;2023-04-03T05:28:31;5.43;;;2.05;;
19671;SDS011;9983;51.114;13.788;2023-04-03T05:33:31;2.78;;;1.80;;
19671;SDS011;9983;51.114;13.788;2023-04-03T05:38:32;1.83;;;1.70;;
19671;SDS011;9983;51.114;13.788;2023-04-03T05:43:32;7.22;;;1.80;;
19671;SDS011;9983;51.114;13.788;2023-04-03T05:48:34;5.47;;;2.15;;
19671;SDS011;9983;51.114;13.788;2023-04-03T05:53:35;3.38;;;1.80;;
19671;SDS011;9983;51.114;13.788;2023-04-03T05:58:39;3.80;;;1.60;;
19671;SDS011;9983;51.114;13.788;2023-04-03T06:03:39;3.97;;;1.70;;
19671;SDS011;9983;51.114;13.788;2023-04-03T06:08:40;3.00;;;1.70;;
19671;SDS011;9983;51.114;13.788;2023-04-03T06:13:40;2.20;;;1.58;;
19671;SDS011;9983;51.114;13.788;2023-04-03T06:18:40;4.03;;;1.98;;
19671;SDS011;9983;51.114;13.788;2023-04-03T06:23:41;4.60;;;1.52;;
19671;SDS011;9983;51.114;13.788;2023-04-03T06:28:41;3.50;;;1.58;;
19671;SDS011;9983;51.114;13.788;2023-04-03T06:33:42;4.03;;;1.90;;
19671;SDS011;9983;51.114;13.788;2023-04-03T06:38:42;5.13;;;1.60;;
19671;SDS011;9983;51.114;13.788;2023-04-03T06:43:45;5.47;;;1.90;;
19671;SDS011;9983;51.114;13.788;2023-04-03T06:48:45;3.78;;;1.25;;
19671;SDS011;9983;51.114;13.788;2023-04-03T06:53:47;2.55;;;1.60;;
19671;SDS011;9983;51.114;13.788;2023-04-03T06:58:48;2.88;;;1.60;;
19671;SDS011;9983;51.114;13.788;2023-04-03T07:03:50;4.20;;;1.65;;
19671;SDS011;9983;51.114;13.788;2023-04-03T07:08:50;4.72;;;1.65;;
19671;SDS011;9983;51.114;13.788;2023-04-03T07:13:50;5.57;;;1.85;;
19671;SDS011;9983;51.114;13.788;2023-04-03T07:18:51;3.38;;;1.52;;
19671;SDS011;9983;51.114;13.788;2023-04-03T07:23:51;2.83;;;1.52;;
19671;SDS011;9983;51.114;13.788;2023-04-03T07:28:51;3.25;;;1.52;;
19671;SDS011;9983;51.114;13.788;2023-04-03T07:33:52;3.28;;;1.40;;
19671;SDS011;9983;51.114;13.788;2023-04-03T07:38:52;4.47;;;1.38;;
19671;SDS011;9983;51.114;13.788;2023-04-03T07:43:52;5.78;;;1.92;;
19671;SDS011;9983;51.114;13.788;2023-04-03T07:48:53;5.80;;;1.70;;
19671;SDS011;9983;51.114;13.788;2023-04-03T07:53:53;4.47;;;1.65;;
19671;SDS011;9983;51.114;13.788;2023-04-03T07:58:53;4.05;;;1.45;;
19671;SDS011;9983;51.114;13.788;2023-04-03T08:03:54;2.95;;;1.65;;
19671;SDS011;9983;51.114;13.788;2023-04-03T08:08:54;1.42;;;1.30;;
19671;SDS011;9983;51.114;13.788;2023-04-03T08:13:55;3.55;;;1.55;;
19671;SDS011;9983;51.114;13.788;2023-04-03T08:18:56;2.83;;;1.30;;
19671;SDS011;9983;51.114;13.788;2023-04-03T08:23:56;2.30;;;1.48;;
19671;SDS011;9983;51.114;13.788;2023-04-03T08:28:57;2.63;;;1.55;;
19671;SDS011;9983;51.114;13.788;2023-04-03T08:33:57;4.05;;;1.65;;
19671;SDS011;9983;51.114;13.788;2023-04-03T08:38:57;2.25;;;1.27;;
19671;SDS011;9983;51.114;13.788;2023-04-03T08:44:00;6.28;;;1.20;;
19671;SDS011;9983;51.114;13.788;2023-04-03T08:49:04;4.07;;;1.63;;
19671;SDS011;9983;51.114;13.788;2023-04-03T08:54:21;2.70;;;1.35;;
19671;SDS011;9983;51.114;13.788;2023-04-03T08:59:28;2.28;;;1.05;;
19671;SDS011;9983;51.114;13.788;2023-04-03T09:04:33;2.58;;;1.15;;
19671;SDS011;9983;51.114;13.788;2023-04-03T09:09:40;2.03;;;1.40;;
19671;SDS011;9983;51.114;13.788;2023-04-03T09:14:45;7.18;;;1.77;;
19671;SDS011;9983;51.114;13.788;2023-04-03T09:25:18;3.22;;;1.45;;
19671;SDS011;9983;51.114;13.788;2023-04-03T09:30:23;2.25;;;1.40;;
19671;SDS011;9983;51.114;13.788;2023-04-03T09:35:29;3.13;;;1.30;;
19671;SDS011;9983;51.114;13.788;2023-04-03T09:40:33;1.63;;;1.15;;
19671;SDS011;9983;51.114;13.788;2023-04-03T09:45:38;1.77;;;1.10;;
19671;SDS011;9983;51.114;13.788;2023-04-03T09:55:59;2.28;;;1.00;;
19671;SDS011;9983;51.114;13.788;2023-04-03T10:01:03;1.25;;;1.00;;
19671;SDS011;9983;51.114;13.788;2023-04-03T10:06:04;2.53;;;1.10;;
19671;SDS011;9983;51.114;13.788;2023-04-03T10:11:20;1.92;;;0.95;;
19671;SDS011;9983;51.114;13.788;2023-04-03T10:22:01;2.28;;;1.02;;
19671;SDS011;9983;51.114;13.788;2023-04-03T10:27:20;2.95;;;1.15;;
19671;SDS011;9983;51.114;13.788;2023-04-03T10:32:51;1.38;;;0.85;;
19671;SDS011;9983;51.114;13.788;2023-04-03T10:38:14;3.30;;;1.17;;
19671;SDS011;9983;51.114;13.788;2023-04-03T10:43:23;2.38;;;0.95;;
19671;SDS011;9983;51.114;13.788;2023-04-03T10:54:32;1.90;;;0.98;;
19671;SDS011;9983;51.114;13.788;2023-04-03T11:00:00;2.60;;;1.20;;
19671;SDS011;9983;51.114;13.788;2023-04-03T11:05:05;2.38;;;0.90;;
19671;SDS011;9983;51.114;13.788;2023-04-03T11:10:15;1.90;;;1.05;;
19671;SDS011;9983;51.114;13.788;2023-04-03T11:15:24;3.30;;;0.90;;
19671;SDS011;9983;51.114;13.788;2023-04-03T11:20:26;1.58;;;0.80;;
19671;SDS011;9983;51.114;13.788;2023-04-03T11:25:34;1.85;;;1.00;;
19671;SDS011;9983;51.114;13.788;2023-04-03T11:36:20;3.00;;;0.98;;
19671;SDS011;9983;51.114;13.788;2023-04-03T11:41:26;3.45;;;1.20;;
19671;SDS011;9983;51.114;13.788;2023-04-03T11:51:55;0.75;;;0.75;;
19671;SDS011;9983;51.114;13.788;2023-04-03T11:56:56;2.25;;;1.20;;
19671;SDS011;9983;51.114;13.788;2023-04-03T12:01:57;3.83;;;1.13;;
19671;SDS011;9983;51.114;13.788;2023-04-03T12:07:17;1.05;;;0.80;;
19671;SDS011;9983;51.114;13.788;2023-04-03T12:12:29;0.88;;;0.88;;
19671;SDS011;9983;51.114;13.788;2023-04-03T12:17:31;2.97;;;1.30;;
19671;SDS011;9983;51.114;13.788;2023-04-03T12:22:33;3.28;;;1.30;;
19671;SDS011;9983;51.114;13.788;2023-04-03T12:27:34;3.83;;;1.13;;
19671;SDS011;9983;51.114;13.788;2023-04-03T12:32:46;1.35;;;1.10;;
19671;SDS011;9983;51.114;13.788;2023-04-03T12:48:29;3.03;;;1.40;;
19671;SDS011;9983;51.114;13.788;2023-04-03T12:53:32;1.83;;;1.13;;
19671;SDS011;9983;51.114;13.788;2023-04-03T12:58:34;2.50;;;1.27;;
19671;SDS011;9983;51.114;13.788;2023-04-03T13:03:34;1.98;;;1.23;;
19671;SDS011;9983;51.114;13.788;2023-04-03T13:08:47;2.03;;;1.30;;
19671;SDS011;9983;51.114;13.788;2023-04-03T13:13:55;2.45;;;1.05;;
19671;SDS011;9983;51.114;13.788;2023-04-03T13:18:56;2.95;;;1.15;;
19671;SDS011;9983;51.114;13.788;2023-04-03T13:23:57;1.15;;;0.75;;
19671;SDS011;9983;51.114;13.788;2023-04-03T13:29:02;2.83;;;1.05;;
19671;SDS011;9983;51.114;13.788;2023-04-03T13:34:11;2.20;;;1.05;;
19671;SDS011;9983;51.114;13.788;2023-04-03T13:49:38;1.83;;;0.93;;
19671;SDS011;9983;51.114;13.788;2023-04-03T13:54:39;1.40;;;0.90;;
19671;SDS011;9983;51.114;13.788;2023-04-03T13:59:39;2.85;;;1.08;;
19671;SDS011;9983;51.114;13.788;2023-04-03T14:09:43;1.30;;;1.20;;
19671;SDS011;9983;51.114;13.788;2023-04-03T14:14:44;5.25;;;2.30;;
19671;SDS011;9983;51.114;13.788;2023-04-03T14:19:45;1.48;;;1.27;;
19671;SDS011;9983;51.114;13.788;2023-04-03T14:24:47;1.33;;;1.23;;
19671;SDS011;9983;51.114;13.788;2023-04-03T14:29:49;2.33;;;0.90;;
19671;SDS011;9983;51.114;13.788;2023-04-03T14:34:51;1.65;;;1.00;;
19671;SDS011;9983;51.114;13.788;2023-04-03T14:39:53;3.17;;;1.33;;
19671;SDS011;9983;51.114;13.788;2023-04-03T14:44:54;4.22;;;1.48;;
19671;SDS011;9983;51.114;13.788;2023-04-03T14:49:54;1.33;;;0.90;;
19671;SDS011;9983;51.114;13.788;2023-04-03T14:54:55;1.48;;;0.82;;
19671;SDS011;9983;51.114;13.788;2023-04-03T14:59:56;1.25;;;0.95;;
19671;SDS011;9983;51.114;13.788;2023-04-03T15:04:57;1.27;;;1.05;;
19671;SDS011;9983;51.114;13.788;2023-04-03T15:10:00;2.10;;;1.02;;
19671;SDS011;9983;51.114;13.788;2023-04-03T15:15:03;2.33;;;1.17;;
19671;SDS011;9983;51.114;13.788;2023-04-03T15:20:10;0.95;;;0.82;;
19671;SDS011;9983;51.114;13.788;2023-04-03T15:25:13;1.38;;;0.88;;
19671;SDS011;9983;51.114;13.788;2023-04-03T15:30:15;1.15;;;0.80;;
19671;SDS011;9983;51.114;13.788;2023-04-03T15:35:17;2.00;;;0.90;;
19671;SDS011;9983;51.114;13.788;2023-04-03T15:40:17;1.65;;;0.98;;
19671;SDS011;9983;51.114;13.788;2023-04-03T15:45:18;2.08;;;0.77;;
19671;SDS011;9983;51.114;13.788;2023-04-03T15:50:18;1.20;;;1.10;;
19671;SDS011;9983;51.114;13.788;2023-04-03T15:55:18;2.92;;;1.05;;
19671;SDS011;9983;51.114;13.788;2023-04-03T16:00:19;1.83;;;0.90;;
19671;SDS011;9983;51.114;13.788;2023-04-03T16:05:20;1.88;;;1.08;;
19671;SDS011;9983;51.114;13.788;2023-04-03T16:10:21;3.53;;;1.40;;
19671;SDS011;9983;51.114;13.788;2023-04-03T16:15:21;2.33;;;1.08;;
19671;SDS011;9983;51.114;13.788;2023-04-03T16:20:24;1.45;;;0.90;;
19671;SDS011;9983;51.114;13.788;2023-04-03T16:25:25;1.95;;;0.93;;
19671;SDS011;9983;51.114;13.788;2023-04-03T16:30:26;1.48;;;0.85;;
19671;SDS011;9983;51.114;13.788;2023-04-03T16:35:26;0.90;;;0.90;;
19671;SDS011;9983;51.114;13.788;2023-04-03T16:40:26;1.35;;;1.25;;
19671;SDS011;9983;51.114;13.788;2023-04-03T16:45:27;2.08;;;1.35;;
19671;SDS011;9983;51.114;13.788;2023-04-03T16:50:27;1.45;;;1.20;;
19671;SDS011;9983;51.114;13.788;2023-04-03T16:55:27;3.03;;;1.17;;
19671;SDS011;9983;51.114;13.788;2023-04-03T17:00:31;3.08;;;1.30;;
19671;SDS011;9983;51.114;13.788;2023-04-03T17:05:31;2.03;;;1.20;;
19671;SDS011;9983;51.114;13.788;2023-04-03T17:10:32;3.80;;;1.20;;
19671;SDS011;9983;51.114;13.788;2023-04-03T17:15:34;2.50;;;1.05;;
19671;SDS011;9983;51.114;13.788;2023-04-03T17:20:35;1.25;;;1.15;;
19671;SDS011;9983;51.114;13.788;2023-04-03T17:25:37;1.63;;;1.40;;
19671;SDS011;9983;51.114;13.788;2023-04-03T17:30:37;1.48;;;1.38;;
19671;SDS011;9983;51.114;13.788;2023-04-03T17:35:38;1.23;;;0.90;;
19671;SDS011;9983;51.114;13.788;2023-04-03T17:40:38;2.07;;;1.30;;
19671;SDS011;9983;51.114;13.788;2023-04-03T17:45:38;1.70;;;1.13;;
19671;SDS011;9983;51.114;13.788;2023-04-03T17:50:39;2.70;;;1.20;;
19671;SDS011;9983;51.114;13.788;2023-04-03T17:55:39;4.45;;;1.35;;
19671;SDS011;9983;51.114;13.788;2023-04-03T18:00:39;1.65;;;1.20;;
19671;SDS011;9983;51.114;13.788;2023-04-03T18:05:39;4.18;;;1.15;;
19671;SDS011;9983;51.114;13.788;2023-04-03T18:10:40;3.15;;;1.23;;
19671;SDS011;9983;51.114;13.788;2023-04-03T18:15:40;3.17;;;1.50;;
19671;SDS011;9983;51.114;13.788;2023-04-03T18:20:44;2.25;;;1.30;;
19671;SDS011;9983;51.114;13.788;2023-04-03T18:25:45;1.40;;;0.88;;
19671;SDS011;9983;51.114;13.788;2023-04-03T18:30:45;1.30;;;1.10;;
19671;SDS011;9983;51.114;13.788;2023-04-03T18:35:46;3.88;;;1.30;;
19671;SDS011;9983;51.114;13.788;2023-04-03T18:40:46;2.25;;;0.70;;
19671;SDS011;9983;51.114;13.788;2023-04-03T18:45:46;1.92;;;1.10;;
19671;SDS011;9983;51.114;13.788;2023-04-03T18:50:47;2.45;;;1.35;;
19671;SDS011;9983;51.114;13.788;2023-04-03T18:55:48;1.20;;;1.10;;
19671;SDS011;9983;51.114;13.788;2023-04-03T19:00:48;1.90;;;1.23;;
19671;SDS011;9983;51.114;13.788;2023-04-03T19:05:48;1.93;;;1.17;;
19671;SDS011;9983;51.114;13.788;2023-04-03T19:10:50;1.73;;;0.90;;
19671;SDS011;9983;51.114;13.788;2023-04-03T19:15:50;1.38;;;1.05;;
19671;SDS011;9983;51.114;13.788;2023-04-03T19:20:52;1.85;;;0.85;;
19671;SDS011;9983;51.114;13.788;2023-04-03T19:26:01;3.15;;;1.25;;
19671;SDS011;9983;51.114;13.788;2023-04-03T19:31:10;2.30;;;0.98;;
19671;SDS011;9983;51.114;13.788;2023-04-03T19:36:15;1.23;;;1.05;;
19671;SDS011;9983;51.114;13.788;2023-04-03T19:41:18;2.38;;;1.40;;
19671;SDS011;9983;51.114;13.788;2023-04-03T19:46:24;2.50;;;1.35;;
19671;SDS011;9983;51.114;13.788;2023-04-03T19:51:26;1.35;;;1.17;;
19671;SDS011;9983;51.114;13.788;2023-04-03T19:56:27;1.30;;;1.20;;
19671;SDS011;9983;51.114;13.788;2023-04-03T20:01:27;3.25;;;1.40;;
19671;SDS011;9983;51.114;13.788;2023-04-03T20:06:29;3.70;;;1.13;;
19671;SDS011;9983;51.114;13.788;2023-04-03T20:11:32;1.80;;;1.00;;
19671;SDS011;9983;51.114;13.788;2023-04-03T20:16:33;2.08;;;1.40;;
19671;SDS011;9983;51.114;13.788;2023-04-03T20:21:34;2.50;;;1.17;;
19671;SDS011;9983;51.114;13.788;2023-04-03T20:26:34;2.20;;;1.33;;
19671;SDS011;9983;51.114;13.788;2023-04-03T20:31:41;2.65;;;1.60;;
19671;SDS011;9983;51.114;13.788;2023-04-03T20:36:41;4.85;;;1.48;;
19671;SDS011;9983;51.114;13.788;2023-04-03T20:41:42;3.03;;;2.10;;
19671;SDS011;9983;51.114;13.788;2023-04-03T20:46:43;2.80;;;2.10;;
19671;SDS011;9983;51.114;13.788;2023-04-03T20:51:44;3.17;;;2.40;;
19671;SDS011;9983;51.114;13.788;2023-04-03T20:56:45;5.03;;;2.50;;
19671;SDS011;9983;51.114;13.788;2023-04-03T21:01:48;4.50;;;2.70;;
19671;SDS011;9983;51.114;13.788;2023-04-03T21:23:06;3.58;;;1.90;;
19671;SDS011;9983;51.114;13.788;2023-04-03T21:28:07;2.28;;;2.10;;
19671;SDS011;9983;51.114;13.788;2023-04-03T21:33:07;3.10;;;1.85;;
19671;SDS011;9983;51.114;13.788;2023-04-03T21:38:07;2.08;;;1.70;;
19671;SDS011;9983;51.114;13.788;2023-04-03T21:43:07;3.10;;;1.92;;
19671;SDS011;9983;51.114;13.788;2023-04-03T21:48:08;4.00;;;1.95;;
19671;SDS011;9983;51.114;13.788;2023-04-03T21:53:09;3.75;;;2.08;;
19671;SDS011;9983;51.114;13.788;2023-04-03T21:58:09;3.70;;;2.35;;
19671;SDS011;9983;51.114;13.788;2023-04-03T22:03:09;2.78;;;2.45;;
19671;SDS011;9983;51.114;13.788;2023-04-03T22:08:10;2.47;;;1.65;;
19671;SDS011;9983;51.114;13.788;2023-04-03T22:13:10;2.85;;;2.22;;
19671;SDS011;9983;51.114;13.788;2023-04-03T22:18:10;3.15;;;1.98;;
19671;SDS011;9983;51.114;13.788;2023-04-03T22:23:10;2.40;;;2.05;;
19671;SDS011;9983;51.114;13.788;2023-04-03T22:28:11;3.58;;;2.03;;
19671;SDS011;9983;51.114;13.788;2023-04-03T22:33:11;3.38;;;2.30;;
19671;SDS011;9983;51.114;13.788;2023-04-03T22:38:11;4.07;;;2.35;;
19671;SDS011;9983;51.114;13.788;2023-04-03T22:43:14;5.25;;;2.40;;
19671;SDS011;9983;51.114;13.788;2023-04-03T22:48:14;3.65;;;2.50;;
19671;SDS011;9983;51.114;13.788;2023-04-03T22:53:15;5.03;;;2.30;;
19671;SDS011;9983;51.114;13.788;2023-04-03T22:58:16;3.33;;;2.03;;
19671;SDS011;9983;51.114;13.788;2023-04-03T23:03:23;5.55;;;2.20;;
19671;SDS011;9983;51.114;13.788;2023-04-03T23:08:23;3.17;;;2.38;;
19671;SDS011;9983;51.114;13.788;2023-04-03T23:13:23;3.50;;;2.30;;
19671;SDS011;9983;51.114;13.788;2023-04-03T23:18:24;2.45;;;1.85;;
19671;SDS011;9983;51.114;13.788;2023-04-03T23:23:28;4.47;;;2.17;;
19671;SDS011;9983;51.114;13.788;2023-04-03T23:28:28;5.18;;;2.50;;
19671;SDS011;9983;51.114;13.788;2023-04-03T23:33:29;3.80;;;2.25;;
19671;SDS011;9983;51.114;13.788;2023-04-03T23:38:30;3.88;;;2.30;;
19671;SDS011;9983;51.114;13.788;2023-04-03T23:43:31;6.68;;;2.83;;
19671;SDS011;9983;51.114;13.788;2023-04-03T23:48:31;3.05;;;2.40;;
19671;SDS011;9983;51.114;13.788;2023-04-03T23:53:31;4.30;;;2.20;;
19671;SDS011;9983;51.114;13.788;2023-04-03T23:58:31;3.10;;;2.10;;
